sensor_id;sensor_type;location;lat;lon;timestamp;temperature;humidity
13713;DHT22;6928;50.546;7.120;2022-09-09T00:01:03;17.12;81.48
13713;DHT22;6928;50.546;7.120;2022-09-09T00:03:38;17.09;81.34
13713;DHT22;6928;50.546;7.120;2022-09-09T00:06:11;17.19;81.24
13713;DHT22;6928;50.546;7.120;2022-09-09T00:08:49;17.43;79.69
13713;DHT22;6928;50.546;7.120;2022-09-09T00:11:30;17.39;79.93
13713;DHT22;6928;50.546;7.120;2022-09-09T00:14:02;17.23;81.05
13713;DHT22;6928;50.546;7.120;2022-09-09T00:16:32;16.92;81.88
13713;DHT22;6928;50.546;7.120;2022-09-09T00:19:07;16.88;82.18
13713;DHT22;6928;50.546;7.120;2022-09-09T00:21:46;16.75;82.92
13713;DHT22;6928;50.546;7.120;2022-09-09T00:24:23;16.74;82.86
13713;DHT22;6928;50.546;7.120;2022-09-09T00:26:59;16.75;82.92
13713;DHT22;6928;50.546;7.120;2022-09-09T00:29:36;16.63;83.11
13713;DHT22;6928;50.546;7.120;2022-09-09T00:32:13;16.64;83.11
13713;DHT22;6928;50.546;7.120;2022-09-09T00:34:48;16.84;82.62
13713;DHT22;6928;50.546;7.120;2022-09-09T00:37:17;16.61;83.75
13713;DHT22;6928;50.546;7.120;2022-09-09T00:39:46;16.34;84.42
13713;DHT22;6928;50.546;7.120;2022-09-09T00:42:18;16.43;84.20
13713;DHT22;6928;50.546;7.120;2022-09-09T00:44:56;16.49;84.37
13713;DHT22;6928;50.546;7.120;2022-09-09T00:47:45;16.80;83.05
13713;DHT22;6928;50.546;7.120;2022-09-09T00:50:38;16.71;83.17
13713;DHT22;6928;50.546;7.120;2022-09-09T00:53:24;16.84;82.64
13713;DHT22;6928;50.546;7.120;2022-09-09T00:56:04;16.56;83.57
13713;DHT22;6928;50.546;7.120;2022-09-09T00:58:35;16.65;83.09
13713;DHT22;6928;50.546;7.120;2022-09-09T01:01:04;16.47;83.86
13713;DHT22;6928;50.546;7.120;2022-09-09T01:03:36;16.57;83.65
13713;DHT22;6928;50.546;7.120;2022-09-09T01:06:15;16.56;83.69
13713;DHT22;6928;50.546;7.120;2022-09-09T01:09:05;16.51;83.81
13713;DHT22;6928;50.546;7.120;2022-09-09T01:11:49;16.32;84.75
13713;DHT22;6928;50.546;7.120;2022-09-09T01:14:32;16.46;84.53
13713;DHT22;6928;50.546;7.120;2022-09-09T01:17:14;16.51;83.97
13713;DHT22;6928;50.546;7.120;2022-09-09T01:20:01;16.26;85.30
13713;DHT22;6928;50.546;7.120;2022-09-09T01:22:35;16.29;84.97
13713;DHT22;6928;50.546;7.120;2022-09-09T01:26:03;16.25;85.00
13713;DHT22;6928;50.546;7.120;2022-09-09T01:28:32;16.20;85.45
13713;DHT22;6928;50.546;7.120;2022-09-09T01:31:02;16.20;85.34
13713;DHT22;6928;50.546;7.120;2022-09-09T01:33:30;16.20;85.42
13713;DHT22;6928;50.546;7.120;2022-09-09T01:36:00;16.44;84.64
13713;DHT22;6928;50.546;7.120;2022-09-09T01:38:29;16.28;84.93
13713;DHT22;6928;50.546;7.120;2022-09-09T01:40:59;16.29;85.00
13713;DHT22;6928;50.546;7.120;2022-09-09T01:43:26;16.32;84.63
13713;DHT22;6928;50.546;7.120;2022-09-09T01:45:55;16.25;84.93
13713;DHT22;6928;50.546;7.120;2022-09-09T01:48:24;16.40;84.07
13713;DHT22;6928;50.546;7.120;2022-09-09T01:50:51;16.43;83.58
13713;DHT22;6928;50.546;7.120;2022-09-09T01:53:20;16.67;82.71
13713;DHT22;6928;50.546;7.120;2022-09-09T01:56:04;16.67;82.82
13713;DHT22;6928;50.546;7.120;2022-09-09T01:58:43;16.36;83.65
13713;DHT22;6928;50.546;7.120;2022-09-09T02:01:25;16.37;84.20
13713;DHT22;6928;50.546;7.120;2022-09-09T02:03:57;16.43;84.26
13713;DHT22;6928;50.546;7.120;2022-09-09T02:06:32;16.19;84.90
13713;DHT22;6928;50.546;7.120;2022-09-09T02:09:04;16.43;84.27
13713;DHT22;6928;50.546;7.120;2022-09-09T02:11:33;16.40;84.11
13713;DHT22;6928;50.546;7.120;2022-09-09T02:14:05;16.26;84.70
13713;DHT22;6928;50.546;7.120;2022-09-09T02:16:38;16.47;84.18
13713;DHT22;6928;50.546;7.120;2022-09-09T02:19:11;16.46;84.18
13713;DHT22;6928;50.546;7.120;2022-09-09T02:21:43;16.33;84.66
13713;DHT22;6928;50.546;7.120;2022-09-09T02:24:13;16.25;85.07
13713;DHT22;6928;50.546;7.120;2022-09-09T02:26:43;16.29;84.97
13713;DHT22;6928;50.546;7.120;2022-09-09T02:29:16;16.28;85.25
13713;DHT22;6928;50.546;7.120;2022-09-09T02:31:46;16.43;84.58
13713;DHT22;6928;50.546;7.120;2022-09-09T02:34:15;16.22;85.19
13713;DHT22;6928;50.546;7.120;2022-09-09T02:36:45;16.06;85.80
13713;DHT22;6928;50.546;7.120;2022-09-09T02:39:13;16.06;85.69
13713;DHT22;6928;50.546;7.120;2022-09-09T02:41:42;16.08;86.11
13713;DHT22;6928;50.546;7.120;2022-09-09T02:44:11;16.36;84.84
13713;DHT22;6928;50.546;7.120;2022-09-09T02:47:04;16.43;84.61
13713;DHT22;6928;50.546;7.120;2022-09-09T02:49:43;16.46;84.29
13713;DHT22;6928;50.546;7.120;2022-09-09T02:52:14;16.30;84.86
13713;DHT22;6928;50.546;7.120;2022-09-09T02:54:42;16.29;84.47
13713;DHT22;6928;50.546;7.120;2022-09-09T02:57:15;16.40;84.13
13713;DHT22;6928;50.546;7.120;2022-09-09T02:59:44;16.23;84.64
13713;DHT22;6928;50.546;7.120;2022-09-09T03:02:11;16.36;84.23
13713;DHT22;6928;50.546;7.120;2022-09-09T03:04:38;16.42;83.72
13713;DHT22;6928;50.546;7.120;2022-09-09T03:07:06;16.43;83.79
13713;DHT22;6928;50.546;7.120;2022-09-09T03:09:32;16.36;83.94
13713;DHT22;6928;50.546;7.120;2022-09-09T03:11:59;16.25;84.48
13713;DHT22;6928;50.546;7.120;2022-09-09T03:14:28;16.29;84.21
13713;DHT22;6928;50.546;7.120;2022-09-09T03:16:56;16.25;84.44
13713;DHT22;6928;50.546;7.120;2022-09-09T03:19:26;16.39;84.26
13713;DHT22;6928;50.546;7.120;2022-09-09T03:21:53;16.29;84.09
13713;DHT22;6928;50.546;7.120;2022-09-09T03:24:20;16.34;83.83
13713;DHT22;6928;50.546;7.120;2022-09-09T03:26:48;16.49;83.06
13713;DHT22;6928;50.546;7.120;2022-09-09T03:29:16;16.44;83.22
13713;DHT22;6928;50.546;7.120;2022-09-09T03:31:45;16.39;83.07
13713;DHT22;6928;50.546;7.120;2022-09-09T03:34:12;16.34;83.06
13713;DHT22;6928;50.546;7.120;2022-09-09T03:36:39;16.40;83.35
13713;DHT22;6928;50.546;7.120;2022-09-09T03:39:06;16.30;83.65
13713;DHT22;6928;50.546;7.120;2022-09-09T03:41:33;16.12;84.52
13713;DHT22;6928;50.546;7.120;2022-09-09T03:44:00;15.92;85.51
13713;DHT22;6928;50.546;7.120;2022-09-09T03:46:27;15.89;85.32
13713;DHT22;6928;50.546;7.120;2022-09-09T03:48:55;15.98;85.44
13713;DHT22;6928;50.546;7.120;2022-09-09T03:51:22;16.04;84.80
13713;DHT22;6928;50.546;7.120;2022-09-09T03:53:49;16.11;84.86
13713;DHT22;6928;50.546;7.120;2022-09-09T03:56:16;16.11;84.35
13713;DHT22;6928;50.546;7.120;2022-09-09T03:58:43;16.25;83.98
13713;DHT22;6928;50.546;7.120;2022-09-09T04:01:12;16.15;84.27
13713;DHT22;6928;50.546;7.120;2022-09-09T04:03:39;16.18;83.86
13713;DHT22;6928;50.546;7.120;2022-09-09T04:06:09;16.04;84.63
13713;DHT22;6928;50.546;7.120;2022-09-09T04:08:37;16.02;84.92
13713;DHT22;6928;50.546;7.120;2022-09-09T04:11:05;16.05;84.65
13713;DHT22;6928;50.546;7.120;2022-09-09T04:13:33;16.05;84.25
13713;DHT22;6928;50.546;7.120;2022-09-09T04:16:02;15.98;84.72
13713;DHT22;6928;50.546;7.120;2022-09-09T04:18:30;16.22;84.16
13713;DHT22;6928;50.546;7.120;2022-09-09T04:20:58;15.98;84.64
13713;DHT22;6928;50.546;7.120;2022-09-09T04:23:27;16.06;84.31
13713;DHT22;6928;50.546;7.120;2022-09-09T04:25:57;16.22;83.80
13713;DHT22;6928;50.546;7.120;2022-09-09T04:28:28;16.11;84.00
13713;DHT22;6928;50.546;7.120;2022-09-09T04:30:55;16.20;82.44
13713;DHT22;6928;50.546;7.120;2022-09-09T04:33:24;16.29;81.68
13713;DHT22;6928;50.546;7.120;2022-09-09T04:35:52;16.22;82.67
13713;DHT22;6928;50.546;7.120;2022-09-09T04:38:21;16.29;81.75
13713;DHT22;6928;50.546;7.120;2022-09-09T04:40:51;16.22;82.78
13713;DHT22;6928;50.546;7.120;2022-09-09T04:43:20;16.20;82.91
13713;DHT22;6928;50.546;7.120;2022-09-09T04:45:49;16.42;82.47
13713;DHT22;6928;50.546;7.120;2022-09-09T04:48:16;16.06;83.93
13713;DHT22;6928;50.546;7.120;2022-09-09T04:50:43;16.19;83.67
13713;DHT22;6928;50.546;7.120;2022-09-09T04:53:11;16.01;83.90
13713;DHT22;6928;50.546;7.120;2022-09-09T04:55:38;16.19;83.69
13713;DHT22;6928;50.546;7.120;2022-09-09T04:58:08;16.28;83.31
13713;DHT22;6928;50.546;7.120;2022-09-09T05:00:37;16.18;83.21
13713;DHT22;6928;50.546;7.120;2022-09-09T05:03:05;16.19;83.17
13713;DHT22;6928;50.546;7.120;2022-09-09T05:05:34;16.08;83.35
13713;DHT22;6928;50.546;7.120;2022-09-09T05:08:02;16.11;83.19
13713;DHT22;6928;50.546;7.120;2022-09-09T05:10:29;15.95;84.08
13713;DHT22;6928;50.546;7.120;2022-09-09T05:12:56;16.11;83.79
13713;DHT22;6928;50.546;7.120;2022-09-09T05:15:24;16.12;83.72
13713;DHT22;6928;50.546;7.120;2022-09-09T05:17:50;16.01;84.21
13713;DHT22;6928;50.546;7.120;2022-09-09T05:20:19;16.09;84.19
13713;DHT22;6928;50.546;7.120;2022-09-09T05:22:45;16.09;84.06
13713;DHT22;6928;50.546;7.120;2022-09-09T05:25:12;16.09;84.02
13713;DHT22;6928;50.546;7.120;2022-09-09T05:27:39;16.05;84.17
13713;DHT22;6928;50.546;7.120;2022-09-09T05:30:07;16.19;83.89
13713;DHT22;6928;50.546;7.120;2022-09-09T05:32:36;16.18;83.97
13713;DHT22;6928;50.546;7.120;2022-09-09T05:35:03;16.25;83.75
13713;DHT22;6928;50.546;7.120;2022-09-09T05:37:31;16.26;83.67
13713;DHT22;6928;50.546;7.120;2022-09-09T05:39:58;16.19;83.80
13713;DHT22;6928;50.546;7.120;2022-09-09T05:42:30;16.30;83.62
13713;DHT22;6928;50.546;7.120;2022-09-09T05:44:58;16.36;83.20
13713;DHT22;6928;50.546;7.120;2022-09-09T05:47:25;16.43;83.12
13713;DHT22;6928;50.546;7.120;2022-09-09T05:49:54;16.42;82.87
13713;DHT22;6928;50.546;7.120;2022-09-09T05:52:21;16.50;82.69
13713;DHT22;6928;50.546;7.120;2022-09-09T05:54:49;16.54;82.34
13713;DHT22;6928;50.546;7.120;2022-09-09T05:57:15;16.46;82.67
13713;DHT22;6928;50.546;7.120;2022-09-09T05:59:42;16.49;82.50
13713;DHT22;6928;50.546;7.120;2022-09-09T06:02:09;16.43;82.38
13713;DHT22;6928;50.546;7.120;2022-09-09T06:04:36;16.50;82.22
13713;DHT22;6928;50.546;7.120;2022-09-09T06:07:05;16.46;82.36
13713;DHT22;6928;50.546;7.120;2022-09-09T06:09:32;16.44;82.53
13713;DHT22;6928;50.546;7.120;2022-09-09T06:11:59;16.65;81.93
13713;DHT22;6928;50.546;7.120;2022-09-09T06:14:26;16.85;81.73
13713;DHT22;6928;50.546;7.120;2022-09-09T06:16:53;17.11;81.06
13713;DHT22;6928;50.546;7.120;2022-09-09T06:19:20;17.09;80.81
13713;DHT22;6928;50.546;7.120;2022-09-09T06:21:46;16.92;80.91
13713;DHT22;6928;50.546;7.120;2022-09-09T06:24:15;16.83;81.01
13713;DHT22;6928;50.546;7.120;2022-09-09T06:26:45;17.26;79.93
13713;DHT22;6928;50.546;7.120;2022-09-09T06:29:12;17.35;79.85
13713;DHT22;6928;50.546;7.120;2022-09-09T06:31:38;17.26;79.91
13713;DHT22;6928;50.546;7.120;2022-09-09T06:34:08;17.57;77.62
13713;DHT22;6928;50.546;7.120;2022-09-09T06:36:37;17.90;77.84
13713;DHT22;6928;50.546;7.120;2022-09-09T06:39:05;18.01;75.29
13713;DHT22;6928;50.546;7.120;2022-09-09T06:41:34;18.07;75.00
13713;DHT22;6928;50.546;7.120;2022-09-09T06:44:02;18.22;73.28
13713;DHT22;6928;50.546;7.120;2022-09-09T06:46:30;18.35;72.97
13713;DHT22;6928;50.546;7.120;2022-09-09T06:48:58;18.25;70.88
13713;DHT22;6928;50.546;7.120;2022-09-09T06:51:27;18.49;70.67
13713;DHT22;6928;50.546;7.120;2022-09-09T06:53:57;18.55;70.35
13713;DHT22;6928;50.546;7.120;2022-09-09T06:56:26;18.75;70.33
13713;DHT22;6928;50.546;7.120;2022-09-09T06:58:56;18.56;69.84
13713;DHT22;6928;50.546;7.120;2022-09-09T07:01:26;18.76;70.42
13713;DHT22;6928;50.546;7.120;2022-09-09T07:03:56;18.73;69.06
13713;DHT22;6928;50.546;7.120;2022-09-09T07:06:26;18.62;69.63
13713;DHT22;6928;50.546;7.120;2022-09-09T07:08:55;18.70;69.88
13713;DHT22;6928;50.546;7.120;2022-09-09T07:11:25;19.03;69.73
13713;DHT22;6928;50.546;7.120;2022-09-09T07:13:53;18.90;69.00
13713;DHT22;6928;50.546;7.120;2022-09-09T07:16:22;18.77;68.85
13713;DHT22;6928;50.546;7.120;2022-09-09T07:18:50;18.62;69.56
13713;DHT22;6928;50.546;7.120;2022-09-09T07:21:18;18.48;69.81
13713;DHT22;6928;50.546;7.120;2022-09-09T07:23:46;18.65;69.74
13713;DHT22;6928;50.546;7.120;2022-09-09T07:26:16;19.18;69.05
13713;DHT22;6928;50.546;7.120;2022-09-09T07:28:44;19.01;69.07
13713;DHT22;6928;50.546;7.120;2022-09-09T07:31:14;18.96;68.95
13713;DHT22;6928;50.546;7.120;2022-09-09T07:33:44;19.10;69.14
13713;DHT22;6928;50.546;7.120;2022-09-09T07:36:14;19.03;68.45
13713;DHT22;6928;50.546;7.120;2022-09-09T07:38:43;19.10;68.56
13713;DHT22;6928;50.546;7.120;2022-09-09T07:41:14;18.97;68.64
13713;DHT22;6928;50.546;7.120;2022-09-09T07:43:43;19.00;68.13
13713;DHT22;6928;50.546;7.120;2022-09-09T07:46:12;18.97;67.83
13713;DHT22;6928;50.546;7.120;2022-09-09T07:48:44;18.96;67.85
13713;DHT22;6928;50.546;7.120;2022-09-09T07:51:13;19.07;67.28
13713;DHT22;6928;50.546;7.120;2022-09-09T07:53:43;19.23;67.18
13713;DHT22;6928;50.546;7.120;2022-09-09T07:56:15;19.20;67.33
13713;DHT22;6928;50.546;7.120;2022-09-09T07:58:45;19.38;66.88
13713;DHT22;6928;50.546;7.120;2022-09-09T08:01:15;19.41;67.05
13713;DHT22;6928;50.546;7.120;2022-09-09T08:03:44;19.62;66.35
13713;DHT22;6928;50.546;7.120;2022-09-09T08:06:13;19.79;65.82
13713;DHT22;6928;50.546;7.120;2022-09-09T08:08:40;19.85;65.06
13713;DHT22;6928;50.546;7.120;2022-09-09T08:11:12;19.66;64.92
13713;DHT22;6928;50.546;7.120;2022-09-09T08:13:41;19.78;64.61
13713;DHT22;6928;50.546;7.120;2022-09-09T08:16:12;19.85;64.76
13713;DHT22;6928;50.546;7.120;2022-09-09T08:18:39;19.92;64.57
13713;DHT22;6928;50.546;7.120;2022-09-09T08:21:10;19.97;63.26
13713;DHT22;6928;50.546;7.120;2022-09-09T08:23:39;19.99;63.53
13713;DHT22;6928;50.546;7.120;2022-09-09T08:26:10;20.03;63.45
13713;DHT22;6928;50.546;7.120;2022-09-09T08:28:38;19.89;64.40
13713;DHT22;6928;50.546;7.120;2022-09-09T08:31:08;19.89;63.92
13713;DHT22;6928;50.546;7.120;2022-09-09T08:33:36;19.96;64.19
13713;DHT22;6928;50.546;7.120;2022-09-09T08:36:04;20.02;64.35
13713;DHT22;6928;50.546;7.120;2022-09-09T08:38:33;20.03;63.52
13713;DHT22;6928;50.546;7.120;2022-09-09T08:41:19;20.21;63.95
13713;DHT22;6928;50.546;7.120;2022-09-09T08:44:01;20.13;64.20
13713;DHT22;6928;50.546;7.120;2022-09-09T08:46:36;19.58;63.95
13713;DHT22;6928;50.546;7.120;2022-09-09T08:49:20;19.66;63.69
13713;DHT22;6928;50.546;7.120;2022-09-09T08:51:49;19.73;63.68
13713;DHT22;6928;50.546;7.120;2022-09-09T08:54:18;19.87;63.47
13713;DHT22;6928;50.546;7.120;2022-09-09T08:56:45;20.13;62.75
13713;DHT22;6928;50.546;7.120;2022-09-09T08:59:17;20.41;62.14
13713;DHT22;6928;50.546;7.120;2022-09-09T09:01:57;20.43;61.36
13713;DHT22;6928;50.546;7.120;2022-09-09T09:04:38;20.40;61.80
13713;DHT22;6928;50.546;7.120;2022-09-09T09:07:21;19.96;62.54
13713;DHT22;6928;50.546;7.120;2022-09-09T09:10:02;19.54;62.83
13713;DHT22;6928;50.546;7.120;2022-09-09T09:12:40;19.39;63.88
13713;DHT22;6928;50.546;7.120;2022-09-09T09:15:14;19.54;62.87
13713;DHT22;6928;50.546;7.120;2022-09-09T09:17:44;19.72;62.82
13713;DHT22;6928;50.546;7.120;2022-09-09T09:20:13;19.86;63.22
13713;DHT22;6928;50.546;7.120;2022-09-09T09:22:47;19.76;62.76
13713;DHT22;6928;50.546;7.120;2022-09-09T09:25:20;19.75;62.84
13713;DHT22;6928;50.546;7.120;2022-09-09T09:27:57;19.79;63.20
13713;DHT22;6928;50.546;7.120;2022-09-09T09:30:29;19.78;62.99
13713;DHT22;6928;50.546;7.120;2022-09-09T09:33:00;19.87;62.74
13713;DHT22;6928;50.546;7.120;2022-09-09T09:35:28;19.58;62.78
13713;DHT22;6928;50.546;7.120;2022-09-09T09:37:55;19.68;62.76
13713;DHT22;6928;50.546;7.120;2022-09-09T09:40:24;20.05;62.19
13713;DHT22;6928;50.546;7.120;2022-09-09T09:42:53;20.24;61.00
13713;DHT22;6928;50.546;7.120;2022-09-09T09:45:28;20.12;61.54
13713;DHT22;6928;50.546;7.120;2022-09-09T09:48:02;20.51;60.71
13713;DHT22;6928;50.546;7.120;2022-09-09T09:50:31;20.44;59.65
13713;DHT22;6928;50.546;7.120;2022-09-09T09:53:02;20.99;59.85
13713;DHT22;6928;50.546;7.120;2022-09-09T09:55:33;21.19;58.72
13713;DHT22;6928;50.546;7.120;2022-09-09T09:58:04;21.05;59.58
13713;DHT22;6928;50.546;7.120;2022-09-09T10:00:33;20.74;59.45
13713;DHT22;6928;50.546;7.120;2022-09-09T10:03:01;20.91;59.62
13713;DHT22;6928;50.546;7.120;2022-09-09T10:05:30;20.43;60.44
13713;DHT22;6928;50.546;7.120;2022-09-09T10:08:10;20.51;60.66
13713;DHT22;6928;50.546;7.120;2022-09-09T10:10:49;20.64;60.29
13713;DHT22;6928;50.546;7.120;2022-09-09T10:13:22;21.05;59.78
13713;DHT22;6928;50.546;7.120;2022-09-09T10:16:09;20.86;59.57
13713;DHT22;6928;50.546;7.120;2022-09-09T10:18:50;20.54;59.87
13713;DHT22;6928;50.546;7.120;2022-09-09T10:21:38;20.85;60.04
13713;DHT22;6928;50.546;7.120;2022-09-09T10:24:48;20.34;60.77
13713;DHT22;6928;50.546;7.120;2022-09-09T10:27:24;20.69;60.56
13713;DHT22;6928;50.546;7.120;2022-09-09T10:30:06;21.06;59.55
13713;DHT22;6928;50.546;7.120;2022-09-09T10:32:45;21.00;60.21
13713;DHT22;6928;50.546;7.120;2022-09-09T10:35:25;20.96;59.56
13713;DHT22;6928;50.546;7.120;2022-09-09T10:38:15;20.96;59.36
13713;DHT22;6928;50.546;7.120;2022-09-09T10:40:59;21.12;58.65
13713;DHT22;6928;50.546;7.120;2022-09-09T10:46:40;21.13;59.64
13713;DHT22;6928;50.546;7.120;2022-09-09T10:49:22;21.40;58.79
13713;DHT22;6928;50.546;7.120;2022-09-09T10:51:56;20.76;60.03
13713;DHT22;6928;50.546;7.120;2022-09-09T10:54:38;20.68;60.49
13713;DHT22;6928;50.546;7.120;2022-09-09T10:57:13;20.78;60.43
13713;DHT22;6928;50.546;7.120;2022-09-09T10:59:47;21.15;59.48
13713;DHT22;6928;50.546;7.120;2022-09-09T11:02:24;21.30;59.53
13713;DHT22;6928;50.546;7.120;2022-09-09T11:04:57;21.32;59.17
13713;DHT22;6928;50.546;7.120;2022-09-09T11:07:35;21.37;58.32
13713;DHT22;6928;50.546;7.120;2022-09-09T11:10:17;20.82;59.71
13713;DHT22;6928;50.546;7.120;2022-09-09T11:12:48;20.78;60.06
13713;DHT22;6928;50.546;7.120;2022-09-09T11:15:23;20.84;60.44
13713;DHT22;6928;50.546;7.120;2022-09-09T11:17:55;20.86;58.60
13713;DHT22;6928;50.546;7.120;2022-09-09T11:20:23;20.72;58.22
13713;DHT22;6928;50.546;7.120;2022-09-09T11:22:57;20.72;58.91
13713;DHT22;6928;50.546;7.120;2022-09-09T11:25:31;21.19;58.79
13713;DHT22;6928;50.546;7.120;2022-09-09T11:28:26;21.12;57.79
13713;DHT22;6928;50.546;7.120;2022-09-09T11:31:15;21.27;58.12
13713;DHT22;6928;50.546;7.120;2022-09-09T11:34:13;21.00;58.50
13713;DHT22;6928;50.546;7.120;2022-09-09T11:37:08;20.98;58.65
13713;DHT22;6928;50.546;7.120;2022-09-09T11:40:08;20.98;58.54
13713;DHT22;6928;50.546;7.120;2022-09-09T11:42:38;21.54;57.29
13713;DHT22;6928;50.546;7.120;2022-09-09T11:45:21;21.92;56.53
13713;DHT22;6928;50.546;7.120;2022-09-09T11:47:55;21.29;57.31
13713;DHT22;6928;50.546;7.120;2022-09-09T11:50:43;21.85;56.37
13713;DHT22;6928;50.546;7.120;2022-09-09T11:53:22;22.00;56.84
13713;DHT22;6928;50.546;7.120;2022-09-09T11:56:02;22.01;55.51
13713;DHT22;6928;50.546;7.120;2022-09-09T11:58:39;22.08;55.75
13713;DHT22;6928;50.546;7.120;2022-09-09T12:01:25;21.61;56.93
13713;DHT22;6928;50.546;7.120;2022-09-09T12:04:17;21.75;56.53
13713;DHT22;6928;50.546;7.120;2022-09-09T12:06:52;21.87;55.52
13713;DHT22;6928;50.546;7.120;2022-09-09T12:09:27;21.95;56.10
13713;DHT22;6928;50.546;7.120;2022-09-09T12:12:30;21.90;55.61
13713;DHT22;6928;50.546;7.120;2022-09-09T12:15:02;22.05;56.12
13713;DHT22;6928;50.546;7.120;2022-09-09T12:17:31;21.67;55.99
13713;DHT22;6928;50.546;7.120;2022-09-09T12:20:13;21.94;55.94
13713;DHT22;6928;50.546;7.120;2022-09-09T12:23:02;21.57;55.98
13713;DHT22;6928;50.546;7.120;2022-09-09T12:25:44;21.55;56.49
13713;DHT22;6928;50.546;7.120;2022-09-09T12:28:17;21.55;56.19
13713;DHT22;6928;50.546;7.120;2022-09-09T12:30:53;21.50;55.61
13713;DHT22;6928;50.546;7.120;2022-09-09T12:33:23;21.36;55.65
13713;DHT22;6928;50.546;7.120;2022-09-09T12:35:55;21.37;55.91
13713;DHT22;6928;50.546;7.120;2022-09-09T12:38:31;21.26;56.21
13713;DHT22;6928;50.546;7.120;2022-09-09T12:40:59;21.60;55.79
13713;DHT22;6928;50.546;7.120;2022-09-09T12:43:27;21.63;54.02
13713;DHT22;6928;50.546;7.120;2022-09-09T12:45:57;21.73;53.60
13713;DHT22;6928;50.546;7.120;2022-09-09T12:48:32;21.81;53.73
13713;DHT22;6928;50.546;7.120;2022-09-09T12:51:18;21.78;53.67
13713;DHT22;6928;50.546;7.120;2022-09-09T12:53:51;21.70;54.20
13713;DHT22;6928;50.546;7.120;2022-09-09T12:56:20;21.87;53.83
13713;DHT22;6928;50.546;7.120;2022-09-09T12:58:50;21.84;53.80
13713;DHT22;6928;50.546;7.120;2022-09-09T13:01:23;21.90;54.27
13713;DHT22;6928;50.546;7.120;2022-09-09T13:03:50;21.90;53.88
13713;DHT22;6928;50.546;7.120;2022-09-09T13:06:22;21.90;54.22
13713;DHT22;6928;50.546;7.120;2022-09-09T13:08:50;21.73;54.61
13713;DHT22;6928;50.546;7.120;2022-09-09T13:11:21;21.78;54.84
13713;DHT22;6928;50.546;7.120;2022-09-09T13:13:54;21.57;55.40
13713;DHT22;6928;50.546;7.120;2022-09-09T13:16:25;21.54;55.20
13713;DHT22;6928;50.546;7.120;2022-09-09T13:18:56;21.51;56.10
13713;DHT22;6928;50.546;7.120;2022-09-09T13:21:33;21.12;57.53
13713;DHT22;6928;50.546;7.120;2022-09-09T13:24:01;21.15;58.09
13713;DHT22;6928;50.546;7.120;2022-09-09T13:26:30;20.75;62.51
13713;DHT22;6928;50.546;7.120;2022-09-09T13:29:14;20.47;67.82
13713;DHT22;6928;50.546;7.120;2022-09-09T13:31:44;20.86;70.20
13713;DHT22;6928;50.546;7.120;2022-09-09T13:34:27;21.09;68.24
13713;DHT22;6928;50.546;7.120;2022-09-09T13:36:59;20.76;67.18
13713;DHT22;6928;50.546;7.120;2022-09-09T13:39:28;21.03;68.09
13713;DHT22;6928;50.546;7.120;2022-09-09T13:41:55;20.99;65.33
13713;DHT22;6928;50.546;7.120;2022-09-09T13:44:26;20.86;65.98
13713;DHT22;6928;50.546;7.120;2022-09-09T13:47:02;20.95;66.22
13713;DHT22;6928;50.546;7.120;2022-09-09T13:49:30;20.92;66.80
13713;DHT22;6928;50.546;7.120;2022-09-09T13:52:10;20.88;65.52
13713;DHT22;6928;50.546;7.120;2022-09-09T13:54:39;20.74;64.73
13713;DHT22;6928;50.546;7.120;2022-09-09T13:57:15;20.67;65.91
13713;DHT22;6928;50.546;7.120;2022-09-09T13:59:43;20.41;66.67
13713;DHT22;6928;50.546;7.120;2022-09-09T14:02:10;20.47;66.39
13713;DHT22;6928;50.546;7.120;2022-09-09T14:04:38;20.45;65.33
13713;DHT22;6928;50.546;7.120;2022-09-09T14:07:10;20.43;65.10
13713;DHT22;6928;50.546;7.120;2022-09-09T14:09:38;20.72;64.96
13713;DHT22;6928;50.546;7.120;2022-09-09T14:12:05;21.13;64.09
13713;DHT22;6928;50.546;7.120;2022-09-09T14:14:32;21.00;63.92
13713;DHT22;6928;50.546;7.120;2022-09-09T14:16:59;21.29;64.05
13713;DHT22;6928;50.546;7.120;2022-09-09T14:19:26;20.96;64.14
13713;DHT22;6928;50.546;7.120;2022-09-09T14:21:53;20.88;64.25
13713;DHT22;6928;50.546;7.120;2022-09-09T14:24:21;20.49;64.87
13713;DHT22;6928;50.546;7.120;2022-09-09T14:26:49;20.13;66.18
13713;DHT22;6928;50.546;7.120;2022-09-09T14:29:16;20.16;66.38
13713;DHT22;6928;50.546;7.120;2022-09-09T14:31:43;20.10;66.58
13713;DHT22;6928;50.546;7.120;2022-09-09T14:34:11;20.06;67.11
13713;DHT22;6928;50.546;7.120;2022-09-09T14:36:37;19.89;67.96
13713;DHT22;6928;50.546;7.120;2022-09-09T14:39:04;20.05;68.77
13713;DHT22;6928;50.546;7.120;2022-09-09T14:41:32;19.82;68.72
13713;DHT22;6928;50.546;7.120;2022-09-09T14:43:59;19.73;68.63
13713;DHT22;6928;50.546;7.120;2022-09-09T14:46:26;19.90;68.52
13713;DHT22;6928;50.546;7.120;2022-09-09T14:48:53;19.87;68.80
13713;DHT22;6928;50.546;7.120;2022-09-09T14:51:22;20.07;68.51
13713;DHT22;6928;50.546;7.120;2022-09-09T14:53:52;19.99;68.38
13713;DHT22;6928;50.546;7.120;2022-09-09T14:56:21;20.51;67.18
13713;DHT22;6928;50.546;7.120;2022-09-09T14:58:52;20.24;67.28
13713;DHT22;6928;50.546;7.120;2022-09-09T15:01:21;20.27;67.41
13713;DHT22;6928;50.546;7.120;2022-09-09T15:03:51;20.31;67.27
13713;DHT22;6928;50.546;7.120;2022-09-09T15:06:19;20.34;67.27
13713;DHT22;6928;50.546;7.120;2022-09-09T15:08:47;20.16;67.58
13713;DHT22;6928;50.546;7.120;2022-09-09T15:11:16;20.37;66.43
13713;DHT22;6928;50.546;7.120;2022-09-09T15:13:43;20.44;67.24
13713;DHT22;6928;50.546;7.120;2022-09-09T15:16:14;20.57;66.75
13713;DHT22;6928;50.546;7.120;2022-09-09T15:18:42;20.64;66.57
13713;DHT22;6928;50.546;7.120;2022-09-09T15:21:10;20.54;66.57
13713;DHT22;6928;50.546;7.120;2022-09-09T15:23:39;20.55;66.23
13713;DHT22;6928;50.546;7.120;2022-09-09T15:26:06;20.61;65.83
13713;DHT22;6928;50.546;7.120;2022-09-09T15:28:36;20.44;66.15
13713;DHT22;6928;50.546;7.120;2022-09-09T15:31:06;20.17;66.88
13713;DHT22;6928;50.546;7.120;2022-09-09T15:33:35;20.26;67.01
13713;DHT22;6928;50.546;7.120;2022-09-09T15:36:13;20.18;66.90
13713;DHT22;6928;50.546;7.120;2022-09-09T15:38:40;20.36;66.86
13713;DHT22;6928;50.546;7.120;2022-09-09T15:41:07;19.93;68.03
13713;DHT22;6928;50.546;7.120;2022-09-09T15:43:34;20.03;67.26
13713;DHT22;6928;50.546;7.120;2022-09-09T15:46:21;20.09;67.08
13713;DHT22;6928;50.546;7.120;2022-09-09T15:48:54;20.09;67.73
13713;DHT22;6928;50.546;7.120;2022-09-09T15:51:22;19.59;69.18
13713;DHT22;6928;50.546;7.120;2022-09-09T15:53:54;19.37;69.82
13713;DHT22;6928;50.546;7.120;2022-09-09T15:56:22;19.12;73.62
13713;DHT22;6928;50.546;7.120;2022-09-09T15:58:49;18.65;76.30
13713;DHT22;6928;50.546;7.120;2022-09-09T16:01:16;18.86;76.27
13713;DHT22;6928;50.546;7.120;2022-09-09T16:03:45;18.84;76.55
13713;DHT22;6928;50.546;7.120;2022-09-09T16:06:14;18.94;78.04
13713;DHT22;6928;50.546;7.120;2022-09-09T16:08:44;18.83;77.13
13713;DHT22;6928;50.546;7.120;2022-09-09T16:11:14;19.06;76.38
13713;DHT22;6928;50.546;7.120;2022-09-09T16:13:42;19.11;76.65
13713;DHT22;6928;50.546;7.120;2022-09-09T16:16:10;18.83;76.47
13713;DHT22;6928;50.546;7.120;2022-09-09T16:18:41;18.87;76.93